Time;durP1;ratioP1;P1;durP2;ratioP2;P2;SDS_P1;SDS_P2;PMS_P1;PMS_P2;Temp;Humidity;BMP_temperature;BMP_pressure;BME280_temperature;BME280_humidity;BME280_pressure;Samples;Min_cycle;Max_cycle;Signal;HPM_P1;HPM_P2
2021/12/18 00:00:59;;;;;;;;;;;22.90;53.00;;;;;;5095378;28;888;-43
2021/12/18 00:03:26;;;;;;;;;;;22.90;52.70;;;;;;5095727;28;1054;-42
2021/12/18 00:05:53;;;;;;;;;;;23.00;52.40;;;;;;5095967;28;988;-41
2021/12/18 00:08:21;;;;;;;;;;;23.20;52.10;;;;;;5096510;28;988;-42
2021/12/18 00:10:47;;;;;;;;;;;23.30;51.80;;;;;;5097041;28;1186;-42
2021/12/18 00:13:15;;;;;;;;;;;23.50;51.40;;;;;;5095214;28;1972;-43
2021/12/18 00:15:41;;;;;;;;;;;23.90;50.80;;;;;;5097210;28;1031;-44
2021/12/18 00:18:08;;;;;;;;;;;23.80;50.50;;;;;;5097108;28;991;-45
2021/12/18 00:20:36;;;;;;;;;;;23.90;50.20;;;;;;5097140;28;892;-46
2021/12/18 00:23:03;;;;;;;;;;;23.90;50.20;;;;;;5096921;28;1133;-44
2021/12/18 00:25:31;;;;;;;;;;;24.00;50.00;;;;;;5097196;28;940;-44
2021/12/18 00:27:58;;;;;;;;;;;24.00;49.80;;;;;;5096500;28;967;-42
2021/12/18 00:30:25;;;;;;;;;;;24.00;49.70;;;;;;5096987;28;1038;-40
2021/12/18 00:32:52;;;;;;;;;;;24.10;49.50;;;;;;5097488;28;1081;-42
2021/12/18 00:35:19;;;;;;;;;;;24.20;49.50;;;;;;5100903;28;1929;-44
2021/12/18 00:37:47;;;;;;;;;;;24.30;49.30;;;;;;5101051;28;1034;-42
2021/12/18 00:40:19;;;;;;;;;;;24.20;49.30;;;;;;5100950;28;948;-44
2021/12/18 00:42:50;;;;;;;;;;;24.20;49.20;;;;;;5101028;28;984;-44
2021/12/18 00:45:18;;;;;;;;;;;24.20;49.30;;;;;;5100678;28;1011;-43
2021/12/18 00:47:46;;;;;;;;;;;24.10;49.20;;;;;;5100796;28;980;-43
2021/12/18 00:50:15;;;;;;;;;;;24.10;49.30;;;;;;5100903;28;853;-44
2021/12/18 00:52:42;;;;;;;;;;;24.10;49.30;;;;;;5100098;28;899;-41
2021/12/18 00:55:09;;;;;;;;;;;24.10;49.30;;;;;;5100074;28;1910;-43
2021/12/18 00:57:37;;;;;;;;;;;24.10;49.30;;;;;;5100647;28;940;-45
2021/12/18 01:00:09;;;;;;;;;;;24.00;49.40;;;;;;5100852;28;940;-46
2021/12/18 01:02:40;;;;;;;;;;;24.00;49.60;;;;;;5100432;28;1389;-43
2021/12/18 01:05:08;;;;;;;;;;;24.00;49.50;;;;;;5100370;28;1007;-46
2021/12/18 01:07:34;;;;;;;;;;;23.90;50.80;;;;;;5100505;28;940;-41
2021/12/18 01:10:11;;;;;;;;;;;23.80;49.80;;;;;;5099559;28;1027;-42
2021/12/18 01:12:41;;;;;;;;;;;23.80;49.90;;;;;;5099635;28;1028;-44
2021/12/18 01:15:18;;;;;;;;;;;23.80;50.00;;;;;;5099172;28;1976;-45
2021/12/18 01:23:15;;;;;;;;;;;23.70;50.00;;;;;;5098915;28;1070;-43
2021/12/18 01:25:42;;;;;;;;;;;23.70;50.30;;;;;;5099436;28;1008;-42
2021/12/18 01:28:09;;;;;;;;;;;23.70;50.30;;;;;;5098202;28;1012;-43
2021/12/18 01:30:37;;;;;;;;;;;23.70;50.20;;;;;;5098741;28;1530;-44
2021/12/18 01:33:04;;;;;;;;;;;23.60;50.40;;;;;;5098490;28;2025;-45
2021/12/18 01:35:31;;;;;;;;;;;23.60;50.50;;;;;;5098747;28;1906;-43
2021/12/18 01:37:58;;;;;;;;;;;23.40;50.70;;;;;;5098788;28;1023;-46
2021/12/18 01:40:25;;;;;;;;;;;23.30;51.20;;;;;;5098071;28;1777;-45
2021/12/18 01:46:01;;;;;;;;;;;23.30;51.20;;;;;;5097903;28;907;-43
2021/12/18 01:51:25;;;;;;;;;;;23.10;51.30;;;;;;5098321;28;872;-42
2021/12/18 01:53:53;;;;;;;;;;;23.10;51.30;;;;;;5099028;28;1894;-42
2021/12/18 01:56:20;;;;;;;;;;;23.10;51.40;;;;;;5098937;28;928;-44
2021/12/18 01:58:47;;;;;;;;;;;23.20;51.40;;;;;;5099661;28;874;-44
2021/12/18 02:01:16;;;;;;;;;;;23.10;51.40;;;;;;5098566;28;988;-43
2021/12/18 02:03:43;;;;;;;;;;;23.10;51.70;;;;;;5099171;28;979;-42
2021/12/18 02:06:10;;;;;;;;;;;23.00;51.70;;;;;;5098422;28;1091;-45
2021/12/18 02:08:38;;;;;;;;;;;23.00;51.90;;;;;;5098599;28;951;-41
2021/12/18 02:11:22;;;;;;;;;;;23.00;51.80;;;;;;5098679;28;1036;-43
2021/12/18 02:14:20;;;;;;;;;;;23.00;52.00;;;;;;5098723;28;1898;-42
2021/12/18 02:19:58;;;;;;;;;;;22.90;52.00;;;;;;5097039;28;687;-38
2021/12/18 02:22:28;;;;;;;;;;;22.80;52.10;;;;;;5099381;28;2513;-37
2021/12/18 02:24:54;;;;;;;;;;;22.90;52.00;;;;;;5098431;28;1127;-37
2021/12/18 02:27:21;;;;;;;;;;;22.90;52.00;;;;;;5098901;28;982;-35
2021/12/18 02:29:48;;;;;;;;;;;23.00;51.90;;;;;;5097840;28;984;-35
2021/12/18 02:32:19;;;;;;;;;;;22.90;52.00;;;;;;5098960;28;983;-36
2021/12/18 02:34:52;;;;;;;;;;;22.90;52.00;;;;;;5097560;28;1997;-36
2021/12/18 02:37:28;;;;;;;;;;;22.80;52.10;;;;;;5098382;28;1011;-35
2021/12/18 02:42:36;;;;;;;;;;;22.90;52.10;;;;;;5095337;28;1437;-35
2021/12/18 02:45:05;;;;;;;;;;;22.90;52.00;;;;;;5097311;28;992;-34
2021/12/18 02:47:32;;;;;;;;;;;22.80;52.10;;;;;;5097631;28;1915;-34
2021/12/18 02:49:59;;;;;;;;;;;22.80;52.10;;;;;;5097430;28;1008;-35
2021/12/18 02:52:29;;;;;;;;;;;22.80;52.20;;;;;;5097658;28;941;-35
2021/12/18 02:54:56;;;;;;;;;;;22.80;52.20;;;;;;5097684;28;1911;-35
2021/12/18 02:57:23;;;;;;;;;;;22.80;52.20;;;;;;5096808;28;1016;-35
2021/12/18 02:59:50;;;;;;;;;;;22.60;52.50;;;;;;5098488;28;916;-34
2021/12/18 03:02:18;;;;;;;;;;;22.60;52.50;;;;;;5097278;28;988;-34
2021/12/18 03:04:50;;;;;;;;;;;22.70;52.60;;;;;;5098058;28;952;-35
2021/12/18 03:07:19;;;;;;;;;;;22.60;52.50;;;;;;5097564;28;1175;-34
2021/12/18 03:19:02;;;;;;;;;;;22.60;52.60;;;;;;5098290;28;999;-35
2021/12/18 03:21:52;;;;;;;;;;;22.60;52.70;;;;;;5097698;28;904;-35
2021/12/18 03:24:22;;;;;;;;;;;22.60;52.60;;;;;;5097877;28;1405;-34
2021/12/18 03:26:51;;;;;;;;;;;22.70;52.60;;;;;;5097675;28;1022;-34
2021/12/18 03:29:17;;;;;;;;;;;22.60;53.70;;;;;;5097874;28;1008;-34
2021/12/18 03:31:44;;;;;;;;;;;22.60;52.60;;;;;;5097991;28;1001;-34
2021/12/18 03:34:11;;;;;;;;;;;22.70;52.50;;;;;;5097642;28;1898;-36
2021/12/18 03:36:38;;;;;;;;;;;22.70;52.40;;;;;;5097560;28;984;-39
2021/12/18 03:39:05;;;;;;;;;;;22.70;52.40;;;;;;5097758;28;1028;-40
2021/12/18 03:41:32;;;;;;;;;;;22.70;52.40;;;;;;5097743;28;1001;-43
2021/12/18 03:44:00;;;;;;;;;;;22.70;52.40;;;;;;5097456;28;857;-44
2021/12/18 03:46:27;;;;;;;;;;;22.70;52.40;;;;;;5097387;28;919;-41
2021/12/18 03:48:54;;;;;;;;;;;22.70;52.30;;;;;;5097614;28;924;-43
2021/12/18 03:51:20;;;;;;;;;;;22.70;52.50;;;;;;5097778;28;883;-35
2021/12/18 03:53:47;;;;;;;;;;;22.70;52.30;;;;;;5097558;28;1004;-35
2021/12/18 03:56:14;;;;;;;;;;;22.70;52.20;;;;;;5097169;28;1902;-37
2021/12/18 03:58:41;;;;;;;;;;;22.70;52.30;;;;;;5097388;28;957;-35
2021/12/18 04:01:10;;;;;;;;;;;22.70;52.30;;;;;;5097590;28;1095;-37
2021/12/18 04:03:36;;;;;;;;;;;22.70;52.20;;;;;;5097493;28;1015;-36
2021/12/18 04:06:03;;;;;;;;;;;22.70;52.30;;;;;;5097124;28;1015;-35
2021/12/18 04:08:30;;;;;;;;;;;22.60;52.30;;;;;;5096583;28;1016;-37
2021/12/18 04:10:57;;;;;;;;;;;22.60;52.50;;;;;;5096093;28;1322;-35
2021/12/18 04:13:23;;;;;;;;;;;22.60;52.50;;;;;;5096418;28;995;-35
2021/12/18 04:15:50;;;;;;;;;;;22.60;52.50;;;;;;5095919;28;1898;-36
2021/12/18 04:18:18;;;;;;;;;;;22.60;52.50;;;;;;5096421;28;961;-35
2021/12/18 04:20:45;;;;;;;;;;;22.60;52.50;;;;;;5096246;28;865;-36
2021/12/18 04:23:12;;;;;;;;;;;22.60;52.50;;;;;;5096494;28;941;-37
2021/12/18 04:25:39;;;;;;;;;;;22.70;52.40;;;;;;5095338;28;982;-36
2021/12/18 04:28:06;;;;;;;;;;;22.60;52.60;;;;;;5095507;28;940;-36
2021/12/18 04:30:33;;;;;;;;;;;22.60;52.60;;;;;;5095873;28;976;-35
2021/12/18 04:32:59;;;;;;;;;;;22.60;52.70;;;;;;5096106;28;982;-38
2021/12/18 04:35:28;;;;;;;;;;;22.50;52.60;;;;;;5095363;28;1980;-36
2021/12/18 04:37:55;;;;;;;;;;;22.60;52.70;;;;;;5097020;28;1079;-36
2021/12/18 04:40:25;;;;;;;;;;;22.50;52.60;;;;;;5095871;28;958;-35
2021/12/18 04:42:52;;;;;;;;;;;22.50;52.80;;;;;;5096888;28;968;-36
2021/12/18 04:45:18;;;;;;;;;;;22.50;52.70;;;;;;5095962;28;912;-35
2021/12/18 04:47:45;;;;;;;;;;;22.50;52.70;;;;;;5096281;28;1014;-43
2021/12/18 04:50:12;;;;;;;;;;;22.50;52.60;;;;;;5095236;28;994;-37
2021/12/18 04:52:40;;;;;;;;;;;22.50;52.70;;;;;;5096673;28;932;-36
2021/12/18 04:55:07;;;;;;;;;;;22.60;52.60;;;;;;5095742;28;1985;-36
2021/12/18 04:57:34;;;;;;;;;;;22.50;52.60;;;;;;5096263;28;921;-35
2021/12/18 05:00:01;;;;;;;;;;;22.60;52.60;;;;;;5095695;28;925;-36
2021/12/18 05:02:36;;;;;;;;;;;22.60;52.50;;;;;;5096662;28;967;-36
2021/12/18 05:05:03;;;;;;;;;;;22.60;52.70;;;;;;5095982;28;944;-36
2021/12/18 05:07:30;;;;;;;;;;;22.60;52.60;;;;;;5096544;28;936;-36
2021/12/18 05:09:58;;;;;;;;;;;22.50;52.60;;;;;;5096002;28;991;-36
2021/12/18 05:12:25;;;;;;;;;;;22.50;52.80;;;;;;5096205;28;995;-36
2021/12/18 05:14:51;;;;;;;;;;;22.60;52.50;;;;;;5095900;28;1978;-37
2021/12/18 05:17:18;;;;;;;;;;;22.50;52.60;;;;;;5095229;28;1035;-36
2021/12/18 05:19:45;;;;;;;;;;;22.50;52.70;;;;;;5097594;28;880;-36
2021/12/18 05:22:12;;;;;;;;;;;22.50;52.70;;;;;;5099210;28;1013;-36
2021/12/18 05:24:38;;;;;;;;;;;22.50;52.60;;;;;;5099674;28;999;-36
2021/12/18 05:27:07;;;;;;;;;;;22.50;53.80;;;;;;5098452;28;937;-36
2021/12/18 05:29:33;;;;;;;;;;;22.50;52.70;;;;;;5099583;28;881;-36
2021/12/18 05:32:00;;;;;;;;;;;22.60;52.80;;;;;;5099155;28;940;-35
2021/12/18 05:34:33;;;;;;;;;;;22.50;52.60;;;;;;5099541;28;933;-35
2021/12/18 05:39:43;;;;;;;;;;;22.50;52.80;;;;;;5098743;28;1242;-35
2021/12/18 05:42:12;;;;;;;;;;;22.50;52.80;;;;;;5098503;28;1000;-36
2021/12/18 05:44:38;;;;;;;;;;;22.50;52.80;;;;;;5098694;28;1713;-36
2021/12/18 05:47:05;;;;;;;;;;;22.50;52.80;;;;;;5098291;28;940;-37
2021/12/18 05:49:32;;;;;;;;;;;22.50;52.60;;;;;;5099113;28;1039;-35
2021/12/18 05:51:59;;;;;;;;;;;22.50;52.80;;;;;;5098143;28;1004;-42
2021/12/18 05:54:25;;;;;;;;;;;22.40;52.80;;;;;;5099602;28;923;-41
2021/12/18 05:56:52;;;;;;;;;;;22.50;52.90;;;;;;5097847;28;1905;-42
2021/12/18 05:59:21;;;;;;;;;;;22.40;52.80;;;;;;5098266;28;1040;-45
2021/12/18 06:01:47;;;;;;;;;;;22.50;52.90;;;;;;5098205;28;1031;-43
2021/12/18 06:04:14;;;;;;;;;;;22.50;52.90;;;;;;5097028;28;988;-43
2021/12/18 06:06:41;;;;;;;;;;;22.40;52.80;;;;;;5098916;28;939;-41
2021/12/18 06:09:09;;;;;;;;;;;22.50;52.90;;;;;;5097939;28;921;-43
2021/12/18 06:11:38;;;;;;;;;;;22.40;52.90;;;;;;5098526;28;996;-42
2021/12/18 06:14:06;;;;;;;;;;;22.40;53.00;;;;;;5098996;28;985;-43
2021/12/18 06:16:34;;;;;;;;;;;22.40;53.00;;;;;;5098702;28;1879;-34
2021/12/18 06:19:01;;;;;;;;;;;22.30;53.00;;;;;;5098780;28;1012;-35
2021/12/18 06:21:28;;;;;;;;;;;22.40;53.00;;;;;;5098807;28;948;-35
2021/12/18 06:23:55;;;;;;;;;;;22.40;53.00;;;;;;5098656;28;1028;-35
2021/12/18 06:26:23;;;;;;;;;;;22.40;52.90;;;;;;5098346;28;992;-34
2021/12/18 06:28:49;;;;;;;;;;;22.40;53.00;;;;;;5098902;28;994;-36
2021/12/18 06:31:16;;;;;;;;;;;22.40;52.90;;;;;;5098655;28;1015;-35
2021/12/18 06:33:44;;;;;;;;;;;22.40;54.00;;;;;;5098762;28;1012;-35
2021/12/18 06:36:11;;;;;;;;;;;22.40;52.80;;;;;;5098302;28;1984;-35
2021/12/18 06:38:38;;;;;;;;;;;22.40;53.00;;;;;;5098204;28;1005;-35
2021/12/18 06:41:04;;;;;;;;;;;22.40;52.70;;;;;;5098609;28;1004;-34
2021/12/18 06:43:31;;;;;;;;;;;22.40;52.90;;;;;;5098333;28;963;-34
2021/12/18 06:45:58;;;;;;;;;;;22.40;52.90;;;;;;5097896;28;932;-40
2021/12/18 06:48:24;;;;;;;;;;;22.40;52.80;;;;;;5098325;28;1022;-44
2021/12/18 06:50:53;;;;;;;;;;;22.40;52.80;;;;;;5097769;28;1002;-39
2021/12/18 06:53:19;;;;;;;;;;;22.40;52.80;;;;;;5097749;28;931;-34
2021/12/18 06:55:46;;;;;;;;;;;22.50;52.90;;;;;;5097594;28;1976;-34
2021/12/18 06:58:13;;;;;;;;;;;22.50;54.00;;;;;;5097711;28;995;-33
2021/12/18 07:00:39;;;;;;;;;;;22.50;52.60;;;;;;5097590;28;976;-35
2021/12/18 07:03:06;;;;;;;;;;;22.60;52.80;;;;;;5097705;28;937;-37
2021/12/18 07:05:33;;;;;;;;;;;22.70;52.50;;;;;;5097824;28;952;-36
2021/12/18 07:08:01;;;;;;;;;;;22.80;52.20;;;;;;5097495;28;993;-36
2021/12/18 07:10:30;;;;;;;;;;;23.00;52.00;;;;;;5097191;28;1026;-34
2021/12/18 07:12:56;;;;;;;;;;;23.10;51.80;;;;;;5096355;28;1169;-34
2021/12/18 07:15:23;;;;;;;;;;;23.20;51.40;;;;;;5096758;28;1901;-34
2021/12/18 07:17:50;;;;;;;;;;;23.30;51.20;;;;;;5096700;28;1015;-34
2021/12/18 07:20:17;;;;;;;;;;;23.40;51.10;;;;;;5095299;28;928;-33
2021/12/18 07:22:43;;;;;;;;;;;23.40;51.00;;;;;;5096386;28;961;-34
2021/12/18 07:25:12;;;;;;;;;;;23.50;50.90;;;;;;5095096;28;1000;-35
2021/12/18 07:27:39;;;;;;;;;;;23.40;50.80;;;;;;5095542;28;928;-34
2021/12/18 07:30:06;;;;;;;;;;;23.60;51.00;;;;;;5095127;28;928;-36
2021/12/18 07:32:33;;;;;;;;;;;23.60;50.90;;;;;;5094888;28;1004;-33
2021/12/18 07:35:00;;;;;;;;;;;23.60;50.70;;;;;;5095001;28;991;-34
2021/12/18 07:37:26;;;;;;;;;;;23.70;50.80;;;;;;5095831;28;1985;-34
2021/12/18 07:39:53;;;;;;;;;;;23.70;50.70;;;;;;5096388;28;1977;-33
2021/12/18 07:42:22;;;;;;;;;;;23.60;50.80;;;;;;5095070;28;968;-33
2021/12/18 07:44:49;;;;;;;;;;;23.60;50.80;;;;;;5096208;28;948;-35
2021/12/18 07:47:16;;;;;;;;;;;23.70;50.70;;;;;;5095670;28;1022;-33
2021/12/18 07:49:42;;;;;;;;;;;23.70;50.90;;;;;;5096407;28;992;-34
2021/12/18 07:52:09;;;;;;;;;;;23.70;50.80;;;;;;5095922;28;984;-37
2021/12/18 07:54:36;;;;;;;;;;;23.70;51.10;;;;;;5096154;28;1011;-35
2021/12/18 07:57:03;;;;;;;;;;;23.60;50.70;;;;;;5095588;28;1911;-35
2021/12/18 07:59:31;;;;;;;;;;;23.60;50.70;;;;;;5094684;28;1059;-34
2021/12/18 08:01:58;;;;;;;;;;;23.70;50.60;;;;;;5094592;28;1039;-39
2021/12/18 08:04:24;;;;;;;;;;;23.80;50.80;;;;;;5096618;28;975;-35
2021/12/18 08:06:51;;;;;;;;;;;23.80;50.70;;;;;;5095645;28;881;-36
2021/12/18 08:09:18;;;;;;;;;;;23.80;50.60;;;;;;5095300;28;1044;-36
2021/12/18 08:11:45;;;;;;;;;;;23.70;50.50;;;;;;5094523;28;1047;-36
2021/12/18 08:14:12;;;;;;;;;;;23.60;50.70;;;;;;5096011;28;1015;-36
2021/12/18 08:16:40;;;;;;;;;;;23.60;50.80;;;;;;5094991;28;1910;-38
2021/12/18 08:19:06;;;;;;;;;;;23.50;50.90;;;;;;5094315;28;960;-35
2021/12/18 08:21:34;;;;;;;;;;;23.40;52.20;;;;;;5094236;28;907;-39
2021/12/18 08:24:01;;;;;;;;;;;23.40;51.30;;;;;;5094958;28;932;-37
2021/12/18 08:26:27;;;;;;;;;;;23.30;51.50;;;;;;5094952;28;969;-37
2021/12/18 08:28:54;;;;;;;;;;;23.30;51.50;;;;;;5096091;28;1003;-36
2021/12/18 08:31:21;;;;;;;;;;;23.20;51.60;;;;;;5095282;28;924;-35
2021/12/18 08:33:49;;;;;;;;;;;23.20;51.70;;;;;;5096401;28;931;-36
2021/12/18 08:36:16;;;;;;;;;;;23.10;51.80;;;;;;5094906;28;1901;-37
2021/12/18 08:38:43;;;;;;;;;;;23.10;51.90;;;;;;5095424;28;932;-35
2021/12/18 08:41:11;;;;;;;;;;;23.10;51.80;;;;;;5095357;28;992;-38
2021/12/18 08:43:38;;;;;;;;;;;23.00;52.00;;;;;;5094300;28;1024;-36
2021/12/18 08:46:04;;;;;;;;;;;23.00;52.20;;;;;;5094573;28;992;-35
2021/12/18 08:48:31;;;;;;;;;;;23.00;52.10;;;;;;5094774;28;873;-39
2021/12/18 08:50:59;;;;;;;;;;;23.00;52.20;;;;;;5094783;28;909;-36
2021/12/18 08:53:26;;;;;;;;;;;23.00;52.30;;;;;;5093783;28;940;-38
2021/12/18 08:55:53;;;;;;;;;;;23.00;52.40;;;;;;5097981;28;1905;-38
2021/12/18 08:58:20;;;;;;;;;;;22.90;52.30;;;;;;5097617;28;925;-39
2021/12/18 09:00:47;;;;;;;;;;;23.00;52.40;;;;;;5098790;28;984;-37
2021/12/18 09:03:13;;;;;;;;;;;22.90;52.40;;;;;;5097382;28;952;-36
2021/12/18 09:05:40;;;;;;;;;;;22.80;52.40;;;;;;5098396;28;970;-35
2021/12/18 09:08:08;;;;;;;;;;;22.80;52.50;;;;;;5097565;28;1008;-36
2021/12/18 09:10:35;;;;;;;;;;;22.80;52.60;;;;;;5098268;28;1023;-38
2021/12/18 09:13:02;;;;;;;;;;;22.80;52.60;;;;;;5098212;28;1102;-35
2021/12/18 09:15:29;;;;;;;;;;;22.80;52.70;;;;;;5098338;28;936;-36
2021/12/18 09:17:55;;;;;;;;;;;22.70;52.60;;;;;;5097442;28;1982;-35
2021/12/18 09:20:22;;;;;;;;;;;22.80;52.70;;;;;;5098298;28;1004;-36
2021/12/18 09:22:49;;;;;;;;;;;22.80;52.70;;;;;;5097946;28;991;-37
2021/12/18 09:25:17;;;;;;;;;;;22.70;52.70;;;;;;5097969;28;952;-38
2021/12/18 09:27:44;;;;;;;;;;;22.70;52.60;;;;;;5098407;28;997;-36
2021/12/18 09:30:12;;;;;;;;;;;22.70;52.70;;;;;;5097969;28;1012;-36
2021/12/18 09:32:39;;;;;;;;;;;22.70;52.70;;;;;;5098494;28;964;-35
2021/12/18 09:35:08;;;;;;;;;;;22.70;52.80;;;;;;5098084;28;877;-36
2021/12/18 09:37:34;;;;;;;;;;;22.70;52.70;;;;;;5099089;28;1902;-36
2021/12/18 09:40:01;;;;;;;;;;;22.70;52.80;;;;;;5098127;28;976;-36
2021/12/18 09:42:29;;;;;;;;;;;22.70;52.80;;;;;;5098182;28;1004;-34
2021/12/18 09:44:56;;;;;;;;;;;22.60;52.80;;;;;;5097984;28;951;-36
2021/12/18 09:47:23;;;;;;;;;;;22.60;52.90;;;;;;5097835;28;1328;-35
2021/12/18 09:49:50;;;;;;;;;;;22.60;52.80;;;;;;5098608;28;1100;-35
2021/12/18 09:52:17;;;;;;;;;;;22.60;52.80;;;;;;5097392;28;1011;-37
2021/12/18 09:54:43;;;;;;;;;;;22.60;52.80;;;;;;5097673;28;939;-36
2021/12/18 09:57:10;;;;;;;;;;;22.50;52.80;;;;;;5097916;28;1969;-36
2021/12/18 09:59:38;;;;;;;;;;;22.60;52.80;;;;;;5097387;28;988;-36
2021/12/18 10:02:06;;;;;;;;;;;22.60;52.90;;;;;;5097559;28;904;-35
2021/12/18 10:04:33;;;;;;;;;;;22.50;52.80;;;;;;5096316;28;980;-36
2021/12/18 10:07:01;;;;;;;;;;;22.60;52.70;;;;;;5096568;28;1008;-36
2021/12/18 10:09:32;;;;;;;;;;;22.50;52.80;;;;;;5097153;28;1020;-36
2021/12/18 10:12:00;;;;;;;;;;;22.60;52.80;;;;;;5096069;28;1039;-35
2021/12/18 10:14:33;;;;;;;;;;;22.50;52.80;;;;;;5096697;28;965;-36
2021/12/18 10:17:01;;;;;;;;;;;22.50;52.90;;;;;;5096648;28;1898;-37
2021/12/18 10:19:30;;;;;;;;;;;22.60;53.00;;;;;;5096915;28;1022;-36
2021/12/18 10:21:58;;;;;;;;;;;22.50;52.90;;;;;;5095684;28;998;-36
2021/12/18 10:24:25;;;;;;;;;;;22.50;52.80;;;;;;5095657;28;943;-36
2021/12/18 10:26:52;;;;;;;;;;;22.40;52.80;;;;;;5096500;28;952;-37
2021/12/18 10:29:30;;;;;;;;;;;22.50;53.10;;;;;;5096433;28;935;-38
2021/12/18 10:32:03;;;;;;;;;;;22.50;53.00;;;;;;5095969;28;991;-35
2021/12/18 10:34:31;;;;;;;;;;;22.40;52.90;;;;;;5096340;28;956;-36
2021/12/18 10:37:13;;;;;;;;;;;22.50;52.90;;;;;;5095992;28;1988;-35
2021/12/18 10:39:40;;;;;;;;;;;22.50;53.00;;;;;;5095913;28;892;-37
2021/12/18 10:42:21;;;;;;;;;;;22.50;52.90;;;;;;5095267;28;869;-35
2021/12/18 10:44:59;;;;;;;;;;;22.50;53.00;;;;;;5096074;28;1047;-36
2021/12/18 10:47:26;;;;;;;;;;;22.40;53.00;;;;;;5095988;28;992;-36
2021/12/18 10:49:54;;;;;;;;;;;22.40;53.00;;;;;;5096156;28;923;-35
2021/12/18 10:52:36;;;;;;;;;;;22.50;53.00;;;;;;5096996;28;1337;-35
2021/12/18 10:55:04;;;;;;;;;;;22.40;52.90;;;;;;5093834;28;869;-36
2021/12/18 10:57:30;;;;;;;;;;;22.40;53.00;;;;;;5095005;28;1977;-35
2021/12/18 10:59:58;;;;;;;;;;;22.40;53.00;;;;;;5095650;28;1001;-35
2021/12/18 11:02:27;;;;;;;;;;;22.40;53.10;;;;;;5095672;28;976;-36
2021/12/18 11:05:13;;;;;;;;;;;22.40;53.00;;;;;;5096581;28;1000;-35
2021/12/18 11:07:43;;;;;;;;;;;22.40;53.10;;;;;;5097108;28;896;-35
2021/12/18 11:10:39;;;;;;;;;;;22.40;53.00;;;;;;5096069;28;1012;-35
2021/12/18 11:15:50;;;;;;;;;;;22.40;53.00;;;;;;5095462;28;983;-36
2021/12/18 11:18:18;;;;;;;;;;;22.40;53.20;;;;;;5094985;28;1898;-36
2021/12/18 11:20:48;;;;;;;;;;;22.40;53.20;;;;;;5095258;28;1015;-36
2021/12/18 11:23:15;;;;;;;;;;;22.40;53.20;;;;;;5095253;28;977;-34
2021/12/18 11:25:42;;;;;;;;;;;22.30;53.20;;;;;;5095397;28;964;-35
2021/12/18 11:28:10;;;;;;;;;;;22.40;53.00;;;;;;5095867;28;986;-33
2021/12/18 11:30:37;;;;;;;;;;;22.40;53.20;;;;;;5095108;28;1487;-38
2021/12/18 11:33:03;;;;;;;;;;;22.40;53.20;;;;;;5095760;28;1115;-37
2021/12/18 11:35:31;;;;;;;;;;;22.40;53.10;;;;;;5095291;28;1011;-35
2021/12/18 11:38:01;;;;;;;;;;;22.40;53.20;;;;;;5095379;28;1908;-37
2021/12/18 11:40:29;;;;;;;;;;;22.40;53.00;;;;;;5095577;28;1000;-36
2021/12/18 11:42:55;;;;;;;;;;;22.40;53.00;;;;;;5095388;28;982;-35
2021/12/18 11:45:30;;;;;;;;;;;22.40;53.00;;;;;;5096275;28;935;-35
2021/12/18 11:47:58;;;;;;;;;;;22.40;53.10;;;;;;5095390;28;955;-39
2021/12/18 11:50:27;;;;;;;;;;;22.40;53.00;;;;;;5095542;28;1178;-36
2021/12/18 11:53:01;;;;;;;;;;;22.40;52.80;;;;;;5095793;28;996;-34
2021/12/18 11:55:29;;;;;;;;;;;22.30;52.70;;;;;;5094867;28;875;-35
2021/12/18 11:57:58;;;;;;;;;;;22.30;52.90;;;;;;5095091;28;1905;-35
2021/12/18 12:00:39;;;;;;;;;;;22.30;52.70;;;;;;5094340;28;1016;-36
2021/12/18 12:03:07;;;;;;;;;;;22.30;52.70;;;;;;5094986;28;1129;-35
2021/12/18 12:05:38;;;;;;;;;;;22.40;52.90;;;;;;5095106;28;980;-35
2021/12/18 12:08:31;;;;;;;;;;;22.40;52.80;;;;;;5094789;28;916;-36
2021/12/18 12:11:16;;;;;;;;;;;22.30;52.90;;;;;;5080931;28;1250;-36
2021/12/18 12:14:08;;;;;;;;;;;22.40;52.90;;;;;;5096660;28;845;-35
2021/12/18 12:16:53;;;;;;;;;;;22.50;52.70;;;;;;5080814;28;1171;-35
2021/12/18 12:19:21;;;;;;;;;;;22.70;52.30;;;;;;5095692;28;928;-37
2021/12/18 12:21:49;;;;;;;;;;;22.70;52.00;;;;;;5096355;28;923;-35
2021/12/18 12:24:17;;;;;;;;;;;22.80;51.70;;;;;;5095916;28;854;-36
2021/12/18 12:26:45;;;;;;;;;;;23.00;51.40;;;;;;5094948;28;865;-34
2021/12/18 12:29:13;;;;;;;;;;;23.20;51.10;;;;;;5097945;28;984;-35
2021/12/18 12:31:54;;;;;;;;;;;23.20;50.70;;;;;;5099535;28;916;-34
2021/12/18 12:34:21;;;;;;;;;;;23.40;50.70;;;;;;5099601;28;972;-35
2021/12/18 12:36:48;;;;;;;;;;;23.50;50.20;;;;;;5098935;28;978;-36
2021/12/18 12:39:16;;;;;;;;;;;23.80;50.20;;;;;;5098511;28;1906;-34
2021/12/18 12:41:48;;;;;;;;;;;23.90;49.80;;;;;;5097963;28;991;-34
2021/12/18 12:44:34;;;;;;;;;;;23.70;49.60;;;;;;5097912;28;984;-34
2021/12/18 12:47:16;;;;;;;;;;;23.70;49.80;;;;;;5098409;28;1228;-34
2021/12/18 12:49:43;;;;;;;;;;;23.70;49.50;;;;;;5098327;28;1015;-33
2021/12/18 12:52:11;;;;;;;;;;;23.70;49.70;;;;;;5098745;28;1009;-35
2021/12/18 12:54:48;;;;;;;;;;;23.60;49.80;;;;;;5098918;28;940;-35
2021/12/18 12:57:35;;;;;;;;;;;23.50;49.90;;;;;;5097849;28;1897;-38
2021/12/18 13:00:20;;;;;;;;;;;23.40;50.10;;;;;;5099254;28;1048;-36
2021/12/18 13:02:52;;;;;;;;;;;23.40;50.30;;;;;;5098940;28;932;-34
2021/12/18 13:05:19;;;;;;;;;;;23.30;50.40;;;;;;5098852;28;1356;-35
2021/12/18 13:07:47;;;;;;;;;;;23.30;50.50;;;;;;5100452;28;1056;-35
2021/12/18 13:10:17;;;;;;;;;;;23.20;50.60;;;;;;5100245;28;987;-37
2021/12/18 13:12:54;;;;;;;;;;;23.40;50.80;;;;;;5099098;28;1040;-40
2021/12/18 13:15:21;;;;;;;;;;;23.30;50.80;;;;;;5099334;28;1000;-42
2021/12/18 13:17:49;;;;;;;;;;;23.30;50.70;;;;;;5099131;28;1893;-37
2021/12/18 13:20:17;;;;;;;;;;;23.10;50.80;;;;;;5099636;28;2115;-37
2021/12/18 13:22:53;;;;;;;;;;;23.00;50.90;;;;;;5098689;28;996;-40
2021/12/18 13:25:20;;;;;;;;;;;23.00;51.20;;;;;;5099172;28;1035;-37
2021/12/18 13:28:02;;;;;;;;;;;23.00;51.00;;;;;;5098154;28;968;-38
2021/12/18 13:30:28;;;;;;;;;;;23.00;51.00;;;;;;5097674;28;1036;-38
2021/12/18 13:32:56;;;;;;;;;;;22.90;50.80;;;;;;5098281;28;1019;-39
2021/12/18 13:35:25;;;;;;;;;;;22.90;50.90;;;;;;5097466;28;1210;-37
2021/12/18 13:37:56;;;;;;;;;;;22.80;50.70;;;;;;5098374;28;1984;-39
2021/12/18 13:40:23;;;;;;;;;;;22.80;51.20;;;;;;5097601;28;849;-37
2021/12/18 13:43:03;;;;;;;;;;;22.70;50.90;;;;;;5099910;28;999;-38
2021/12/18 13:45:30;;;;;;;;;;;22.70;51.10;;;;;;5097880;28;969;-38
2021/12/18 13:48:02;;;;;;;;;;;22.60;50.90;;;;;;5097696;28;1210;-37
2021/12/18 13:50:31;;;;;;;;;;;22.60;51.30;;;;;;5098235;28;1414;-38
2021/12/18 13:52:58;;;;;;;;;;;22.60;51.40;;;;;;5098737;28;1025;-40
2021/12/18 13:55:27;;;;;;;;;;;22.50;51.50;;;;;;5098424;28;936;-37
2021/12/18 13:58:01;;;;;;;;;;;22.50;51.50;;;;;;5097760;28;1975;-37
2021/12/18 14:00:28;;;;;;;;;;;22.50;51.60;;;;;;5098994;28;1004;-37
2021/12/18 14:02:55;;;;;;;;;;;22.50;51.50;;;;;;5098454;28;1953;-41
2021/12/18 14:05:22;;;;;;;;;;;22.40;51.60;;;;;;5098216;28;1003;-36
2021/12/18 14:07:50;;;;;;;;;;;22.40;51.80;;;;;;5097472;28;1019;-36
2021/12/18 14:10:17;;;;;;;;;;;22.40;51.90;;;;;;5097959;28;1002;-38
2021/12/18 14:12:44;;;;;;;;;;;22.40;52.00;;;;;;5097754;28;1217;-39
2021/12/18 14:15:17;;;;;;;;;;;22.40;51.90;;;;;;5097982;28;993;-37
2021/12/18 14:17:44;;;;;;;;;;;22.40;51.90;;;;;;5098888;28;2423;-41
2021/12/18 14:20:12;;;;;;;;;;;22.40;51.80;;;;;;5098088;28;1021;-35
2021/12/18 14:22:39;;;;;;;;;;;22.40;52.00;;;;;;5097944;28;1615;-40
2021/12/18 14:25:08;;;;;;;;;;;22.30;51.90;;;;;;5096940;28;1008;-37
2021/12/18 14:27:40;;;;;;;;;;;22.30;52.10;;;;;;5098284;28;974;-39
2021/12/18 14:30:12;;;;;;;;;;;22.30;52.10;;;;;;5098034;28;1012;-38
2021/12/18 14:32:39;;;;;;;;;;;22.30;52.20;;;;;;5096622;28;1022;-38
2021/12/18 14:35:10;;;;;;;;;;;22.20;52.10;;;;;;5097415;28;966;-37
2021/12/18 14:37:46;;;;;;;;;;;22.20;52.10;;;;;;5098161;28;1906;-37
2021/12/18 14:40:18;;;;;;;;;;;22.30;52.40;;;;;;5096053;28;940;-37
2021/12/18 14:42:54;;;;;;;;;;;22.20;52.10;;;;;;5096227;28;929;-38
2021/12/18 14:45:22;;;;;;;;;;;22.20;52.00;;;;;;5096629;28;985;-37
2021/12/18 14:47:50;;;;;;;;;;;22.20;52.10;;;;;;5096646;28;940;-38
2021/12/18 14:50:18;;;;;;;;;;;22.20;52.20;;;;;;5096823;28;944;-38
2021/12/18 14:52:53;;;;;;;;;;;22.20;52.60;;;;;;5096900;28;963;-36
2021/12/18 14:55:23;;;;;;;;;;;22.20;52.20;;;;;;5096643;28;1035;-38
2021/12/18 14:57:54;;;;;;;;;;;22.20;52.20;;;;;;5098121;28;1906;-37
2021/12/18 15:00:22;;;;;;;;;;;22.20;52.40;;;;;;5097507;28;999;-40
2021/12/18 15:02:53;;;;;;;;;;;22.20;52.30;;;;;;5097285;28;982;-36
2021/12/18 15:05:20;;;;;;;;;;;22.20;52.30;;;;;;5097344;28;1016;-36
2021/12/18 15:07:55;;;;;;;;;;;22.20;52.20;;;;;;5096720;28;1456;-39
2021/12/18 15:10:24;;;;;;;;;;;22.20;52.40;;;;;;5096176;28;937;-35
2021/12/18 15:12:50;;;;;;;;;;;22.10;52.20;;;;;;5097808;28;1275;-38
2021/12/18 15:15:17;;;;;;;;;;;22.10;52.40;;;;;;5098243;28;947;-39
2021/12/18 15:17:44;;;;;;;;;;;22.10;52.50;;;;;;5097877;28;1042;-37